Time;durP1;ratioP1;P1;durP2;ratioP2;P2;SDS_P1;SDS_P2;PMS_P1;PMS_P2;Temp;Humidity;BMP_temperature;BMP_pressure;BME280_temperature;BME280_humidity;BME280_pressure;Samples;Min_cycle;Max_cycle;Signal;HPM_P1;HPM_P2
2023/04/16 00:00:25;;;;;;;48.38;25.42;;;7.70;99.90;;;;;;5005381;28;20026;-78
2023/04/16 00:02:50;;;;;;;51.42;26.20;;;7.70;99.90;;;;;;5017309;28;20120;-78
2023/04/16 00:05:16;;;;;;;52.05;26.77;;;7.70;99.90;;;;;;5029465;28;20033;-78
2023/04/16 00:07:41;;;;;;;53.67;28.85;;;7.80;99.90;;;;;;5016042;28;20033;-78
2023/04/16 00:10:07;;;;;;;53.13;28.85;;;7.80;99.90;;;;;;4990944;28;20049;-78
2023/04/16 00:12:33;;;;;;;53.80;27.90;;;7.80;99.90;;;;;;5029953;28;20030;-78
2023/04/16 00:14:58;;;;;;;48.95;26.08;;;7.70;99.90;;;;;;5019934;28;20034;-78
2023/04/16 00:17:24;;;;;;;55.17;26.10;;;7.80;99.90;;;;;;5011930;28;20084;-78
2023/04/16 00:19:49;;;;;;;54.40;29.50;;;7.80;99.90;;;;;;5000955;28;20485;-78
2023/04/16 00:22:15;;;;;;;52.28;25.95;;;7.80;99.90;;;;;;5007360;28;20028;-78
2023/04/16 00:24:41;;;;;;;49.78;25.05;;;7.80;99.90;;;;;;5014093;28;20030;-77
2023/04/16 00:27:06;;;;;;;55.17;26.48;;;7.80;99.90;;;;;;4997663;28;20036;-77
2023/04/16 00:29:33;;;;;;;54.60;30.55;;;7.80;99.90;;;;;;4998466;28;20026;-79
2023/04/16 00:31:59;;;;;;;40.72;23.70;;;7.80;99.90;;;;;;5018814;28;20029;-79
2023/04/16 00:34:24;;;;;;;54.88;31.42;;;7.80;99.90;;;;;;5023983;28;20556;-78
2023/04/16 00:36:50;;;;;;;55.25;30.00;;;7.80;99.90;;;;;;4999477;28;20030;-78
2023/04/16 00:39:15;;;;;;;57.15;30.55;;;7.70;99.90;;;;;;5012949;28;20033;-77
2023/04/16 00:41:42;;;;;;;59.85;32.95;;;7.80;99.90;;;;;;5011464;28;20033;-79
2023/04/16 00:44:08;;;;;;;51.38;29.80;;;7.80;99.90;;;;;;5005147;28;20570;-78
2023/04/16 00:46:33;;;;;;;64.03;33.10;;;7.80;99.90;;;;;;5004814;28;20117;-78
2023/04/16 00:48:59;;;;;;;57.90;32.72;;;7.70;99.90;;;;;;5015518;28;20037;-79
2023/04/16 00:51:25;;;;;;;62.13;32.90;;;7.80;99.90;;;;;;4998767;28;20033;-77
2023/04/16 00:53:51;;;;;;;66.35;38.42;;;7.80;99.90;;;;;;5017750;28;20037;-78
2023/04/16 00:56:17;;;;;;;64.88;32.22;;;7.80;99.90;;;;;;5011926;28;20474;-78
2023/04/16 00:58:42;;;;;;;59.05;32.83;;;7.80;99.90;;;;;;4999342;28;20148;-78
2023/04/16 01:01:08;;;;;;;54.78;30.95;;;7.80;99.90;;;;;;4992493;28;20033;-77
2023/04/16 01:03:38;;;;;;;59.15;35.22;;;7.80;99.90;;;;;;5011593;28;20127;-78
2023/04/16 01:06:04;;;;;;;49.85;29.27;;;7.80;99.90;;;;;;4995209;28;20040;-78
2023/04/16 01:08:30;;;;;;;61.60;32.80;;;7.80;99.90;;;;;;5015632;28;20457;-78
2023/04/16 01:10:55;;;;;;;58.83;32.75;;;7.80;99.90;;;;;;5001233;28;20045;-78
2023/04/16 01:13:21;;;;;;;58.88;35.25;;;7.80;99.90;;;;;;5020523;28;20026;-77
2023/04/16 01:15:47;;;;;;;61.33;30.45;;;7.80;99.90;;;;;;4999039;28;20162;-78
2023/04/16 01:18:15;;;;;;;54.83;32.35;;;7.80;99.90;;;;;;5011780;28;20036;-77
2023/04/16 01:20:41;;;;;;;59.17;34.45;;;7.80;99.90;;;;;;4997672;28;20084;-77
2023/04/16 01:23:07;;;;;;;57.78;34.90;;;7.80;99.90;;;;;;4989813;28;20033;-77
2023/04/16 01:25:32;;;;;;;62.38;30.73;;;7.80;99.90;;;;;;4996720;28;20092;-78
2023/04/16 01:27:58;;;;;;;53.63;32.30;;;7.80;99.90;;;;;;5018025;28;20115;-77
2023/04/16 01:30:25;;;;;;;57.13;29.42;;;7.80;99.90;;;;;;5029232;28;20060;-78
2023/04/16 01:32:50;;;;;;;55.90;31.63;;;7.80;99.90;;;;;;5016283;28;20103;-77
2023/04/16 01:35:17;;;;;;;61.95;33.33;;;7.80;99.90;;;;;;5014037;28;20473;-79
2023/04/16 01:37:43;;;;;;;61.78;34.85;;;7.80;99.90;;;;;;5000857;28;20524;-78
2023/04/16 01:40:08;;;;;;;51.03;30.58;;;7.80;99.90;;;;;;5004165;28;20223;-78
2023/04/16 01:42:34;;;;;;;63.00;31.90;;;7.80;99.90;;;;;;5011548;28;20065;-78
2023/04/16 01:44:59;;;;;;;57.83;31.63;;;7.80;99.90;;;;;;4999153;28;20094;-78
2023/04/16 01:47:27;;;;;;;59.03;34.47;;;7.80;99.90;;;;;;5018787;28;20041;-77
2023/04/16 01:49:53;;;;;;;47.15;24.63;;;7.80;99.90;;;;;;5005904;28;20036;-78
2023/04/16 01:52:19;;;;;;;64.75;33.72;;;7.80;99.90;;;;;;5014356;28;20029;-78
2023/04/16 01:54:45;;;;;;;73.70;36.88;;;7.80;99.90;;;;;;5001536;28;20033;-77
2023/04/16 01:57:10;;;;;;;63.63;31.33;;;7.80;99.90;;;;;;5014484;28;20564;-77
2023/04/16 01:59:36;;;;;;;65.78;32.97;;;7.80;99.90;;;;;;4996254;28;20029;-78
2023/04/16 02:02:05;;;;;;;68.60;36.40;;;7.80;99.90;;;;;;5021829;28;20017;-77
2023/04/16 02:04:30;;;;;;;68.43;33.17;;;7.80;99.90;;;;;;4986048;28;20145;-79
2023/04/16 02:06:56;;;;;;;63.10;33.17;;;7.80;99.90;;;;;;4998296;28;20109;-78
2023/04/16 02:09:21;;;;;;;62.58;35.03;;;7.80;99.90;;;;;;5016148;28;20026;-79
2023/04/16 02:11:47;;;;;;;59.55;33.75;;;7.90;99.90;;;;;;5003443;28;20766;-78
2023/04/16 02:14:12;;;;;;;64.72;33.70;;;7.90;99.90;;;;;;5013663;28;20033;-77
2023/04/16 02:16:38;;;;;;;61.80;35.42;;;7.90;99.90;;;;;;5014337;28;20038;-77
2023/04/16 02:19:03;;;;;;;64.32;34.47;;;7.80;99.90;;;;;;5015095;28;20455;-77
2023/04/16 02:21:30;;;;;;;59.03;34.35;;;7.90;99.90;;;;;;4998156;28;20551;-77
2023/04/16 02:23:56;;;;;;;63.63;33.65;;;7.90;99.90;;;;;;5000941;28;20041;-77
2023/04/16 02:26:21;;;;;;;64.43;38.50;;;7.90;99.90;;;;;;5009615;28;20405;-78
2023/04/16 02:28:47;;;;;;;66.75;39.17;;;7.80;99.90;;;;;;5015172;28;20030;-77
2023/04/16 02:31:13;;;;;;;68.03;35.53;;;7.90;99.90;;;;;;5002305;28;20194;-77
2023/04/16 02:33:39;;;;;;;56.75;32.72;;;7.90;99.90;;;;;;5000943;28;20045;-77
2023/04/16 02:36:05;;;;;;;59.03;33.40;;;7.90;99.90;;;;;;5003712;28;20022;-78
2023/04/16 02:38:30;;;;;;;60.47;31.05;;;7.90;99.90;;;;;;5010964;28;20088;-77
2023/04/16 02:40:56;;;;;;;57.78;31.98;;;7.90;99.90;;;;;;5013789;28;20033;-78
2023/04/16 02:43:21;;;;;;;61.22;32.67;;;7.90;99.90;;;;;;5014111;28;20026;-78
2023/04/16 02:45:47;;;;;;;59.05;34.15;;;7.90;99.90;;;;;;5012946;28;20096;-77
2023/04/16 02:48:13;;;;;;;61.92;32.03;;;7.90;99.90;;;;;;4997747;28;20367;-77
2023/04/16 02:50:38;;;;;;;51.25;28.38;;;7.90;99.90;;;;;;4994946;28;20049;-78
2023/04/16 02:53:05;;;;;;;52.70;32.78;;;7.90;99.90;;;;;;5012946;28;20040;-78
2023/04/16 02:55:33;;;;;;;57.58;32.00;;;8.00;99.90;;;;;;5013819;28;20512;-77
2023/04/16 02:57:58;;;;;;;58.70;30.88;;;7.90;99.90;;;;;;5031554;28;20026;-77
2023/04/16 03:00:24;;;;;;;53.42;32.10;;;7.90;99.90;;;;;;5019844;28;20036;-77
2023/04/16 03:02:50;;;;;;;57.33;32.00;;;7.90;99.90;;;;;;5018776;28;20153;-77
2023/04/16 03:05:15;;;;;;;59.22;32.03;;;7.90;99.90;;;;;;5008728;28;20040;-76
2023/04/16 03:07:41;;;;;;;56.95;30.20;;;7.90;99.90;;;;;;5029452;28;20549;-77
2023/04/16 03:10:07;;;;;;;47.88;26.02;;;8.00;99.90;;;;;;5024857;28;20040;-77
2023/04/16 03:12:35;;;;;;;55.47;32.10;;;8.00;99.90;;;;;;5001494;28;20038;-77
2023/04/16 03:15:01;;;;;;;55.25;31.27;;;8.00;99.90;;;;;;5021197;28;20397;-77
2023/04/16 03:17:26;;;;;;;58.45;30.40;;;8.00;99.90;;;;;;5014737;28;20037;-77
2023/04/16 03:19:52;;;;;;;64.40;31.88;;;7.90;99.90;;;;;;5016544;28;20505;-78
2023/04/16 03:22:18;;;;;;;64.97;35.40;;;8.00;99.90;;;;;;5018864;28;20393;-78
2023/04/16 03:24:43;;;;;;;62.00;32.08;;;8.00;99.90;;;;;;5003813;28;20033;-78
2023/04/16 03:27:09;;;;;;;59.90;31.77;;;8.00;99.90;;;;;;5002071;28;20030;-77
2023/04/16 03:29:37;;;;;;;62.10;32.60;;;7.90;99.90;;;;;;5031146;28;20123;-79
2023/04/16 03:32:03;;;;;;;59.67;31.30;;;8.00;99.90;;;;;;5001902;28;20041;-78
2023/04/16 03:34:29;;;;;;;58.72;32.03;;;8.00;99.90;;;;;;5006016;28;20599;-78
2023/04/16 03:36:54;;;;;;;63.60;32.72;;;8.00;99.90;;;;;;5013733;28;20034;-78
2023/04/16 03:39:20;;;;;;;64.53;34.75;;;8.00;99.90;;;;;;5025069;28;20029;-78
2023/04/16 03:41:45;;;;;;;60.00;31.27;;;8.00;99.90;;;;;;5018549;28;20030;-77
2023/04/16 03:44:11;;;;;;;54.53;28.90;;;8.00;99.90;;;;;;4998665;28;20042;-78
2023/04/16 03:46:36;;;;;;;65.93;35.28;;;8.10;99.90;;;;;;5017134;28;20068;-78
2023/04/16 03:49:02;;;;;;;67.22;31.88;;;8.10;99.90;;;;;;5019497;28;20053;-78
2023/04/16 03:51:27;;;;;;;54.25;29.70;;;8.10;99.90;;;;;;5030855;28;20068;-79
2023/04/16 03:53:53;;;;;;;61.63;29.58;;;8.10;99.90;;;;;;5013631;28;20371;-78
2023/04/16 03:56:19;;;;;;;57.55;32.60;;;8.10;99.90;;;;;;5015489;28;20030;-77
2023/04/16 03:58:45;;;;;;;60.58;29.65;;;8.00;99.90;;;;;;5014306;28;20565;-78
2023/04/16 04:01:10;;;;;;;60.45;35.40;;;8.10;99.90;;;;;;5004027;28;20121;-78
2023/04/16 04:03:36;;;;;;;68.22;36.40;;;8.10;99.90;;;;;;5005834;28;20061;-77
2023/04/16 04:06:07;;;;;;;67.43;36.38;;;8.00;99.90;;;;;;5012660;28;20382;-78
2023/04/16 04:08:32;;;;;;;72.32;37.20;;;8.00;99.90;;;;;;4996916;28;20075;-78
2023/04/16 04:10:58;;;;;;;60.58;29.52;;;8.00;99.90;;;;;;5015318;28;20513;-77
2023/04/16 04:13:23;;;;;;;53.90;28.77;;;8.10;99.90;;;;;;5021371;28;20112;-77
2023/04/16 04:15:49;;;;;;;59.30;29.08;;;8.00;99.90;;;;;;5019831;28;20453;-77
2023/04/16 04:18:15;;;;;;;57.92;30.80;;;8.10;99.90;;;;;;5012264;28;20600;-79
2023/04/16 04:20:40;;;;;;;60.60;31.38;;;8.10;99.90;;;;;;5014964;28;20117;-78
2023/04/16 04:23:06;;;;;;;63.20;31.55;;;8.10;99.90;;;;;;4989769;28;20029;-78
2023/04/16 04:25:32;;;;;;;67.05;33.15;;;8.10;99.90;;;;;;5001735;28;20038;-77
2023/04/16 04:27:57;;;;;;;80.30;32.28;;;8.10;99.90;;;;;;4977162;28;20426;-77
2023/04/16 04:30:23;;;;;;;65.70;32.90;;;8.10;99.90;;;;;;5028267;28;20135;-78
2023/04/16 04:32:48;;;;;;;69.22;36.45;;;8.10;99.90;;;;;;5015953;28;20029;-79
2023/04/16 04:35:14;;;;;;;80.40;35.45;;;8.10;99.90;;;;;;5031873;28;20693;-78
2023/04/16 04:37:39;;;;;;;80.10;42.47;;;8.10;99.90;;;;;;5013293;28;20034;-78
2023/04/16 04:40:08;;;;;;;81.05;38.20;;;8.00;99.90;;;;;;5012250;28;20079;-78
2023/04/16 04:42:34;;;;;;;78.57;35.13;;;8.10;99.90;;;;;;5004100;28;20393;-78
2023/04/16 04:44:59;;;;;;;81.88;41.10;;;8.10;99.90;;;;;;5016011;28;20037;-77
2023/04/16 04:47:25;;;;;;;75.10;37.50;;;8.10;99.90;;;;;;5004550;28;20497;-78
2023/04/16 04:49:51;;;;;;;77.70;36.72;;;8.00;99.90;;;;;;4998486;28;20030;-78
2023/04/16 04:52:19;;;;;;;82.95;38.15;;;8.10;99.90;;;;;;5014542;28;20064;-77
2023/04/16 04:54:45;;;;;;;77.88;35.75;;;8.10;99.90;;;;;;5031367;28;20033;-77
2023/04/16 04:57:10;;;;;;;80.03;36.30;;;8.10;99.90;;;;;;5015407;28;20378;-76
2023/04/16 04:59:36;;;;;;;81.95;37.60;;;8.10;99.90;;;;;;5004700;28;20034;-77
2023/04/16 05:02:02;;;;;;;77.03;36.22;;;8.10;99.90;;;;;;5022658;28;20033;-77
2023/04/16 05:04:28;;;;;;;71.78;34.53;;;8.10;99.90;;;;;;5013085;28;20041;-79
2023/04/16 05:06:54;;;;;;;74.32;35.22;;;8.20;99.90;;;;;;4998327;28;20116;-80
2023/04/16 05:09:20;;;;;;;80.28;33.25;;;8.10;99.90;;;;;;5011101;28;20196;-78
2023/04/16 05:11:45;;;;;;;67.32;31.23;;;8.20;99.90;;;;;;5021293;28;20044;-77
2023/04/16 05:14:11;;;;;;;70.30;34.42;;;8.20;99.90;;;;;;4999444;28;20026;-77
2023/04/16 05:16:36;;;;;;;75.28;34.92;;;8.20;99.90;;;;;;5003333;28;20438;-78
2023/04/16 05:19:02;;;;;;;78.28;34.63;;;8.20;99.90;;;;;;5011498;28;20117;-77
2023/04/16 05:21:28;;;;;;;66.35;29.83;;;8.20;99.90;;;;;;5015998;28;20035;-77
2023/04/16 05:23:53;;;;;;;75.03;33.53;;;8.20;99.90;;;;;;5019487;28;20390;-77
2023/04/16 05:26:19;;;;;;;75.22;33.67;;;8.20;99.90;;;;;;5012912;28;20041;-77
2023/04/16 05:28:45;;;;;;;70.55;33.85;;;8.30;99.90;;;;;;5003274;28;20636;-79
2023/04/16 05:31:10;;;;;;;76.28;34.60;;;8.30;99.90;;;;;;5001435;28;20033;-77
2023/04/16 05:33:36;;;;;;;62.15;32.60;;;8.30;99.90;;;;;;4997377;28;20046;-77
2023/04/16 05:36:01;;;;;;;69.63;36.45;;;8.30;99.90;;;;;;5013118;28;20079;-77
2023/04/16 05:38:27;;;;;;;69.38;35.92;;;8.30;99.90;;;;;;5013638;28;20049;-77
2023/04/16 05:40:53;;;;;;;70.55;31.60;;;8.30;99.90;;;;;;5012483;28;20036;-77
2023/04/16 05:43:18;;;;;;;62.50;32.00;;;8.30;99.90;;;;;;5003416;28;20033;-77
2023/04/16 05:45:44;;;;;;;68.25;32.83;;;8.30;99.90;;;;;;5016096;28;20124;-77
2023/04/16 05:48:09;;;;;;;62.53;36.28;;;8.30;99.90;;;;;;4988825;28;20045;-77
2023/04/16 05:50:35;;;;;;;57.13;30.42;;;8.30;99.90;;;;;;5019362;28;20052;-77
2023/04/16 05:53:07;;;;;;;65.75;34.78;;;8.30;99.90;;;;;;5016119;28;20136;-77
2023/04/16 05:55:35;;;;;;;54.90;31.63;;;8.30;99.90;;;;;;4997558;28;20034;-78
2023/04/16 05:58:03;;;;;;;64.50;31.67;;;8.30;99.90;;;;;;5015561;28;20025;-77
2023/04/16 06:00:29;;;;;;;51.20;30.02;;;8.30;99.90;;;;;;4996739;28;20641;-77
2023/04/16 06:02:54;;;;;;;56.30;30.08;;;8.30;99.90;;;;;;5013406;28;20038;-78
2023/04/16 06:05:20;;;;;;;53.20;28.33;;;8.30;99.90;;;;;;5013285;28;20276;-77
2023/04/16 06:07:46;;;;;;;54.50;30.58;;;8.40;99.90;;;;;;4999565;28;20034;-78
2023/04/16 06:10:11;;;;;;;53.70;29.73;;;8.40;99.90;;;;;;4983181;28;20029;-77
2023/04/16 06:12:37;;;;;;;52.53;29.20;;;8.40;99.90;;;;;;4999547;28;20485;-77
2023/04/16 06:15:03;;;;;;;55.33;30.67;;;8.40;99.90;;;;;;5015337;28;20032;-77
2023/04/16 06:17:29;;;;;;;51.45;28.27;;;8.40;99.90;;;;;;5018183;28;20088;-79
2023/04/16 06:19:54;;;;;;;52.70;27.55;;;8.50;99.90;;;;;;4998365;28;20109;-78
2023/04/16 06:22:20;;;;;;;54.35;31.60;;;8.40;99.90;;;;;;4995752;28;20030;-77
2023/04/16 06:24:45;;;;;;;47.55;28.77;;;8.40;99.90;;;;;;5029985;28;20068;-78
2023/04/16 06:27:11;;;;;;;45.67;27.77;;;8.40;99.90;;;;;;5002132;28;20023;-77
2023/04/16 06:29:36;;;;;;;56.33;26.23;;;8.40;99.90;;;;;;5011781;28;20030;-78
2023/04/16 06:32:02;;;;;;;50.70;28.35;;;8.40;99.90;;;;;;5001480;28;20090;-77
2023/04/16 06:34:28;;;;;;;50.13;29.80;;;8.50;99.90;;;;;;5018470;28;20080;-77
2023/04/16 06:36:54;;;;;;;54.90;32.17;;;8.50;99.90;;;;;;5006548;28;20029;-78
2023/04/16 06:39:22;;;;;;;54.53;30.42;;;8.50;99.90;;;;;;5011683;28;20573;-78
2023/04/16 06:41:48;;;;;;;50.65;29.25;;;8.50;99.90;;;;;;5001354;28;20111;-78
2023/04/16 06:44:13;;;;;;;54.22;27.80;;;8.50;99.90;;;;;;5001311;28;20110;-77
2023/04/16 06:46:49;;;;;;;55.58;30.95;;;8.60;99.90;;;;;;5007257;28;20445;-77
2023/04/16 06:49:14;;;;;;;47.45;25.38;;;8.60;99.90;;;;;;5002888;28;20033;-77
2023/04/16 06:51:41;;;;;;;56.85;27.95;;;8.60;99.90;;;;;;5027521;28;20127;-78
2023/04/16 06:54:06;;;;;;;49.88;28.40;;;8.60;99.90;;;;;;5003559;28;20036;-78
2023/04/16 06:56:32;;;;;;;48.97;27.65;;;8.70;99.90;;;;;;5018712;28;20045;-77
2023/04/16 06:58:59;;;;;;;51.22;31.27;;;8.70;99.90;;;;;;5033587;28;20038;-77
2023/04/16 07:01:25;;;;;;;50.53;29.08;;;8.70;99.90;;;;;;5001573;28;20401;-78
2023/04/16 07:03:51;;;;;;;51.83;29.45;;;8.70;99.90;;;;;;5003744;28;20117;-76
2023/04/16 07:06:16;;;;;;;50.03;29.00;;;8.70;99.90;;;;;;5035790;28;20025;-77
2023/04/16 07:08:42;;;;;;;55.42;31.45;;;8.80;99.90;;;;;;5024238;28;20036;-77
2023/04/16 07:11:07;;;;;;;54.38;28.77;;;8.80;99.90;;;;;;4985984;28;20044;-79
2023/04/16 07:13:41;;;;;;;53.90;33.05;;;8.80;99.90;;;;;;5018219;28;20030;-77
2023/04/16 07:16:06;;;;;;;52.72;30.25;;;8.90;99.90;;;;;;5015368;28;20396;-78
2023/04/16 07:18:32;;;;;;;48.22;28.88;;;8.90;99.90;;;;;;4998558;28;20029;-78
2023/04/16 07:20:57;;;;;;;53.10;29.38;;;9.00;99.90;;;;;;5014912;28;20026;-76
2023/04/16 07:23:23;;;;;;;53.20;28.88;;;9.00;99.90;;;;;;5016410;28;20045;-78
2023/04/16 07:25:49;;;;;;;44.88;28.05;;;9.10;99.90;;;;;;5018539;28;20117;-76
2023/04/16 07:28:17;;;;;;;45.38;27.52;;;9.10;99.90;;;;;;5012834;28;20097;-78
2023/04/16 07:30:45;;;;;;;47.80;28.70;;;9.20;99.90;;;;;;5014472;28;20046;-77
2023/04/16 07:33:11;;;;;;;52.63;31.88;;;9.30;99.90;;;;;;4996519;28;20048;-77
2023/04/16 07:35:40;;;;;;;52.13;28.73;;;9.30;99.90;;;;;;4998303;28;20033;-79
2023/04/16 07:38:05;;;;;;;53.20;30.80;;;9.30;99.90;;;;;;4990406;28;20026;-78
2023/04/16 07:40:34;;;;;;;52.25;27.80;;;9.40;99.90;;;;;;5032314;28;20433;-79
2023/04/16 07:43:02;;;;;;;54.45;29.83;;;9.50;99.90;;;;;;5014349;28;20494;-78
2023/04/16 07:45:29;;;;;;;52.65;28.83;;;9.40;99.90;;;;;;5036094;28;20041;-78
2023/04/16 07:47:55;;;;;;;42.72;25.98;;;9.50;99.90;;;;;;4994501;28;20116;-77
2023/04/16 07:50:21;;;;;;;48.78;29.08;;;9.50;99.90;;;;;;5013362;28;20184;-78
2023/04/16 07:52:46;;;;;;;48.88;29.02;;;9.60;99.90;;;;;;5001268;28;20037;-77
2023/04/16 07:55:12;;;;;;;48.88;27.85;;;9.60;99.90;;;;;;5024626;28;20134;-77
2023/04/16 07:57:37;;;;;;;45.97;29.85;;;9.60;99.90;;;;;;5013804;28;20090;-77
2023/04/16 08:00:04;;;;;;;46.90;27.83;;;9.70;99.90;;;;;;5000927;28;20028;-78
2023/04/16 08:02:29;;;;;;;42.63;25.60;;;9.70;99.90;;;;;;5018436;28;20085;-79
2023/04/16 08:04:58;;;;;;;43.95;28.05;;;9.60;99.90;;;;;;4991654;28;20461;-79
2023/04/16 08:07:24;;;;;;;48.28;25.90;;;9.70;99.90;;;;;;4997932;28;20029;-78
2023/04/16 08:09:50;;;;;;;43.90;26.38;;;9.70;99.90;;;;;;5004217;28;20033;-77
2023/04/16 08:12:16;;;;;;;38.63;23.80;;;9.70;99.90;;;;;;5005472;28;20068;-77
2023/04/16 08:14:42;;;;;;;48.67;27.55;;;9.80;99.90;;;;;;5015309;28;20490;-78
2023/04/16 08:17:08;;;;;;;47.90;26.30;;;9.90;99.90;;;;;;4997497;28;20040;-78
2023/04/16 08:19:33;;;;;;;44.35;25.80;;;10.00;99.90;;;;;;5015072;28;20042;-78
2023/04/16 08:21:59;;;;;;;45.65;28.38;;;10.10;99.90;;;;;;5010330;28;20026;-78
2023/04/16 08:24:25;;;;;;;47.10;27.70;;;10.20;99.90;;;;;;5029171;28;20038;-78
2023/04/16 08:26:50;;;;;;;42.35;25.52;;;10.40;99.90;;;;;;5001393;28;20551;-77
2023/04/16 08:29:16;;;;;;;44.33;27.23;;;10.50;99.90;;;;;;5011447;28;20033;-77
2023/04/16 08:31:42;;;;;;;45.65;27.67;;;10.70;99.90;;;;;;5001747;28;20040;-78
2023/04/16 08:34:10;;;;;;;42.20;25.23;;;10.90;99.90;;;;;;4996110;28;20060;-78
2023/04/16 08:36:35;;;;;;;38.78;24.10;;;11.00;99.90;;;;;;5000423;28;20604;-78
2023/04/16 08:39:01;;;;;;;41.08;24.38;;;11.20;99.90;;;;;;5015011;28;20105;-78
2023/04/16 08:41:33;;;;;;;41.13;25.70;;;11.20;99.90;;;;;;5022705;28;20696;-78
2023/04/16 08:43:59;;;;;;;40.42;24.50;;;11.20;99.90;;;;;;4996869;28;20099;-77
2023/04/16 08:46:25;;;;;;;43.70;27.52;;;11.40;99.90;;;;;;5014498;28;20036;-77
2023/04/16 08:48:52;;;;;;;36.63;24.85;;;11.50;99.90;;;;;;5020541;28;20034;-77
2023/04/16 08:51:18;;;;;;;41.53;25.02;;;11.50;99.90;;;;;;5008473;28;20501;-78
2023/04/16 08:53:48;;;;;;;41.03;26.80;;;11.50;99.90;;;;;;5010714;28;20081;-77
2023/04/16 08:56:14;;;;;;;41.35;25.52;;;11.50;99.90;;;;;;5012330;28;20033;-76
2023/04/16 08:58:39;;;;;;;47.53;29.45;;;11.50;99.90;;;;;;4999357;28;20430;-75
2023/04/16 09:01:05;;;;;;;41.60;30.42;;;11.50;99.90;;;;;;5014816;28;20037;-76
2023/04/16 09:03:31;;;;;;;44.50;25.65;;;11.50;99.90;;;;;;5012309;28;20041;-75
2023/04/16 09:05:58;;;;;;;40.92;24.85;;;11.50;99.90;;;;;;5011355;28;20034;-76
2023/04/16 09:08:24;;;;;;;34.28;23.25;;;11.60;99.90;;;;;;5000751;28;20172;-77
2023/04/16 09:10:50;;;;;;;36.85;24.00;;;11.70;99.90;;;;;;4998714;28;20553;-77
2023/04/16 09:13:19;;;;;;;38.78;23.40;;;11.80;99.90;;;;;;5013535;28;20152;-76
2023/04/16 09:15:44;;;;;;;35.85;24.30;;;11.90;99.90;;;;;;5012700;28;20453;-76
2023/04/16 09:18:11;;;;;;;34.53;25.00;;;11.90;99.90;;;;;;4999400;28;20030;-76
2023/04/16 09:20:39;;;;;;;32.85;23.92;;;11.90;99.90;;;;;;4993132;28;20046;-76
2023/04/16 09:23:05;;;;;;;36.75;23.50;;;11.90;99.90;;;;;;5010933;28;20445;-77
2023/04/16 09:25:34;;;;;;;32.80;22.30;;;12.00;99.90;;;;;;5019415;28;20045;-77
2023/04/16 09:28:00;;;;;;;30.73;21.88;;;12.00;99.90;;;;;;4999987;28;20041;-76
2023/04/16 09:30:26;;;;;;;31.73;21.15;;;12.10;99.90;;;;;;5007210;28;20409;-76
2023/04/16 09:33:10;;;;;;;33.50;23.38;;;12.10;99.90;;;;;;5027651;28;20042;-75
2023/04/16 09:35:44;;;;;;;30.05;20.40;;;12.10;99.90;;;;;;5014371;28;20092;-76
2023/04/16 09:38:09;;;;;;;29.50;22.83;;;12.20;99.90;;;;;;5015989;28;20113;-77
2023/04/16 09:40:35;;;;;;;30.13;20.75;;;12.20;99.90;;;;;;5012059;28;20514;-77
2023/04/16 09:43:03;;;;;;;32.42;21.60;;;12.20;99.90;;;;;;5014891;28;20026;-77
2023/04/16 09:45:32;;;;;;;31.35;22.90;;;12.30;99.90;;;;;;4997500;28;20521;-77
2023/04/16 09:48:02;;;;;;;33.05;22.83;;;12.30;99.90;;;;;;5014766;28;20038;-77
2023/04/16 09:50:28;;;;;;;30.10;21.90;;;12.50;99.90;;;;;;5005164;28;20545;-76
2023/04/16 09:52:53;;;;;;;31.52;22.35;;;12.50;99.90;;;;;;4996223;28;20436;-76
2023/04/16 09:55:22;;;;;;;29.05;22.35;;;12.60;99.90;;;;;;5011467;28;20072;-76
2023/04/16 09:57:48;;;;;;;29.08;19.17;;;12.80;99.90;;;;;;5025191;28;20752;-76
2023/04/16 10:00:17;;;;;;;29.02;22.20;;;13.00;99.90;;;;;;4991958;28;20025;-78
2023/04/16 10:02:42;;;;;;;28.45;20.88;;;13.30;99.90;;;;;;5026492;28;20036;-76
2023/04/16 10:05:08;;;;;;;28.38;20.02;;;13.50;99.90;;;;;;4999779;28;20385;-76
2023/04/16 10:07:35;;;;;;;28.13;19.65;;;13.70;99.90;;;;;;4999482;28;20038;-77
2023/04/16 10:10:02;;;;;;;27.67;20.73;;;13.90;99.90;;;;;;4992888;28;1155256;-77
2023/04/16 10:12:28;;;;;;;29.55;18.65;;;14.00;99.90;;;;;;4982835;28;20509;-76
2023/04/16 10:14:54;;;;;;;24.52;18.55;;;14.20;99.90;;;;;;5014272;28;20040;-77
2023/04/16 10:17:20;;;;;;;28.42;18.50;;;14.40;99.90;;;;;;5012872;28;20026;-77
2023/04/16 10:19:45;;;;;;;25.10;17.83;;;14.50;99.90;;;;;;4996365;28;20141;-77
2023/04/16 10:22:11;;;;;;;23.42;17.92;;;14.70;99.90;;;;;;5005085;28;20033;-77
2023/04/16 10:24:37;;;;;;;26.40;18.05;;;14.90;99.90;;;;;;5011129;28;20539;-77
2023/04/16 10:27:03;;;;;;;25.15;18.05;;;15.00;99.90;;;;;;5019801;28;20030;-78
2023/04/16 10:29:29;;;;;;;24.20;16.27;;;15.20;99.90;;;;;;5019939;28;20037;-77
2023/04/16 10:31:55;;;;;;;24.67;18.25;;;15.40;99.90;;;;;;5011621;28;20037;-77
2023/04/16 10:34:21;;;;;;;24.30;17.23;;;15.70;99.90;;;;;;5030160;28;20371;-77
2023/04/16 10:36:48;;;;;;;21.45;17.08;;;15.70;99.90;;;;;;4984923;28;20100;-78
2023/04/16 10:39:19;;;;;;;25.52;17.13;;;15.70;99.90;;;;;;5002659;28;20038;-77
2023/04/16 10:41:44;;;;;;;23.92;16.77;;;15.70;99.90;;;;;;5010517;28;20034;-77
2023/04/16 10:44:10;;;;;;;21.58;16.48;;;15.70;99.90;;;;;;4997172;28;20063;-78
2023/04/16 10:46:40;;;;;;;25.70;18.13;;;15.70;99.90;;;;;;5013567;28;20045;-77
2023/04/16 10:49:18;;;;;;;21.75;16.42;;;15.70;99.90;;;;;;5013074;28;20748;-78
2023/04/16 10:51:57;;;;;;;21.10;15.80;;;15.80;99.90;;;;;;5003184;28;20436;-77
2023/04/16 10:54:29;;;;;;;20.70;15.48;;;15.90;99.90;;;;;;5008471;28;20033;-76
2023/04/16 10:56:56;;;;;;;23.98;15.63;;;16.10;99.90;;;;;;5019054;28;20494;-77
2023/04/16 10:59:22;;;;;;;22.67;17.58;;;16.50;99.90;;;;;;5022170;28;20037;-76
2023/04/16 11:01:53;;;;;;;21.23;16.50;;;16.80;99.90;;;;;;5014279;28;20037;-76
2023/04/16 11:04:24;;;;;;;22.83;16.95;;;17.00;99.90;;;;;;5008953;28;20022;-77
2023/04/16 11:07:15;;;;;;;20.40;15.45;;;17.10;99.90;;;;;;5011386;28;20565;-75
2023/04/16 11:09:53;;;;;;;23.05;16.17;;;17.20;99.90;;;;;;5010434;28;20034;-78
2023/04/16 11:12:25;;;;;;;17.27;14.38;;;17.00;99.90;;;;;;5020147;28;20091;-75
2023/04/16 11:14:52;;;;;;;19.23;15.05;;;17.10;99.90;;;;;;5022854;28;20034;-76
2023/04/16 11:17:19;;;;;;;20.33;14.68;;;17.30;99.90;;;;;;5002762;28;20118;-76
2023/04/16 11:19:44;;;;;;;18.77;15.43;;;17.80;99.90;;;;;;5014264;28;20038;-76
2023/04/16 11:22:15;;;;;;;21.23;15.18;;;17.70;99.90;;;;;;4991154;28;20080;-76
2023/04/16 11:24:44;;;;;;;20.33;16.80;;;18.00;99.90;;;;;;5018249;28;20375;-76
2023/04/16 11:27:12;;;;;;;18.02;15.82;;;18.00;99.90;;;;;;5007221;28;20030;-76
2023/04/16 11:29:38;;;;;;;21.23;14.88;;;17.90;99.90;;;;;;5000931;28;20053;-76
2023/04/16 11:32:04;;;;;;;18.33;13.75;;;18.10;99.90;;;;;;5015068;28;20030;-77
2023/04/16 11:34:30;;;;;;;22.48;17.67;;;17.80;99.90;;;;;;5020043;28;20660;-76
2023/04/16 11:36:56;;;;;;;21.27;16.42;;;18.10;99.90;;;;;;5025055;28;20057;-77
2023/04/16 11:39:21;;;;;;;23.17;15.77;;;18.30;99.90;;;;;;5014264;28;20026;-77
2023/04/16 11:41:48;;;;;;;22.40;15.52;;;18.30;99.90;;;;;;5013156;28;20096;-76
2023/04/16 11:44:21;;;;;;;19.02;15.15;;;18.20;99.90;;;;;;5014322;28;20060;-77
2023/04/16 11:46:47;;;;;;;19.88;15.98;;;18.10;99.90;;;;;;5019725;28;20501;-77
2023/04/16 11:49:13;;;;;;;19.55;14.88;;;17.90;99.90;;;;;;5005205;28;20034;-76
2023/04/16 11:51:42;;;;;;;18.33;14.80;;;17.80;99.90;;;;;;5014728;28;20434;-75
2023/04/16 11:54:08;;;;;;;22.17;16.33;;;17.70;99.90;;;;;;5011226;28;20508;-76
2023/04/16 11:56:35;;;;;;;19.27;14.40;;;17.80;99.90;;;;;;5014748;28;20030;-77
2023/04/16 11:59:10;;;;;;;19.52;15.13;;;17.70;99.90;;;;;;5026553;28;20552;-77
2023/04/16 12:01:36;;;;;;;16.75;13.18;;;17.80;99.90;;;;;;5008034;28;20498;-76
2023/04/16 12:04:02;;;;;;;21.95;15.10;;;17.60;99.90;;;;;;5011860;28;20048;-77
2023/04/16 12:06:27;;;;;;;19.10;14.80;;;17.70;99.90;;;;;;5015085;28;20049;-77
2023/04/16 12:08:53;;;;;;;22.20;16.33;;;17.80;99.90;;;;;;5003327;28;20038;-76
2023/04/16 12:11:19;;;;;;;18.42;16.27;;;17.90;99.90;;;;;;5033748;28;20037;-77
2023/04/16 12:14:10;;;;;;;19.35;14.25;;;17.90;99.90;;;;;;5023026;28;20133;-76
2023/04/16 12:16:35;;;;;;;15.32;12.98;;;17.70;99.90;;;;;;5028621;28;20045;-78
2023/04/16 12:19:02;;;;;;;20.70;15.02;;;17.70;99.90;;;;;;5016981;28;20029;-77
2023/04/16 12:21:44;;;;;;;20.00;14.63;;;17.50;99.90;;;;;;5016661;28;20653;-77
2023/04/16 12:24:12;;;;;;;20.33;15.75;;;17.40;99.90;;;;;;5019958;28;20404;-78
2023/04/16 12:26:50;;;;;;;19.27;15.27;;;17.50;99.90;;;;;;5023115;28;20037;-78
2023/04/16 12:29:17;;;;;;;18.95;14.73;;;17.40;99.90;;;;;;5003050;28;20033;-77